Terminal Aerodrome Forecast
Issued by NWS

Home | Current Version | Previous Version | Text Only | Print | Product List | Glossary On
Versions: 1 2 3 4 5 6 7 8 9 10 11 12 13 14 15 16 17 18 19 20 21
000
FTUS43 KDTX 251509 AAA
TAFYIP
TAF AMD
KYIP 251509Z 2515/2612 25012KT 5SM BR OVC014
     FM251700 27014G22KT P6SM SCT014 BKN025
     FM251900 27015G24KT P6SM SKC
     FM260000 28010KT P6SM SKC=

USA.gov is the U.S. government's official web portal to all federal, state and local government web resources and services.